Time;durP1;ratioP1;P1;durP2;ratioP2;P2;SDS_P1;SDS_P2;PMS_P1;PMS_P2;Temp;Humidity;BMP_temperature;BMP_pressure;BME280_temperature;BME280_humidity;BME280_pressure;Samples;Min_cycle;Max_cycle;Signal;HPM_P1;HPM_P2
2022/12/14 00:00:48;;;;;;;8.20;7.70;;;-1.80;1.00;;;;;;5077210;28;20178;-67
2022/12/14 00:03:15;;;;;;;7.83;7.43;;;-1.70;1.00;;;;;;5067811;28;20252;-67
2022/12/14 00:05:42;;;;;;;9.47;8.77;;;-1.70;1.00;;;;;;5057576;28;20277;-67
2022/12/14 00:08:08;;;;;;;8.33;7.67;;;-1.70;1.00;;;;;;5064928;28;20220;-67
2022/12/14 00:10:35;;;;;;;7.67;7.10;;;-1.70;1.00;;;;;;5077143;28;20181;-67
2022/12/14 00:13:02;;;;;;;7.07;6.77;;;-1.70;1.00;;;;;;5069894;28;20178;-67
2022/12/14 00:15:28;;;;;;;7.87;7.47;;;-1.70;1.00;;;;;;5057309;28;20209;-67
2022/12/14 00:17:53;;;;;;;8.63;7.93;;;-1.70;1.00;;;;;;5059901;28;20177;-67
2022/12/14 00:20:19;;;;;;;7.90;7.40;;;-1.70;1.00;;;;;;5073728;28;20628;-67
2022/12/14 00:22:45;;;;;;;9.67;8.97;;;-1.70;1.00;;;;;;5068112;28;20210;-67
2022/12/14 00:25:10;;;;;;;8.03;7.30;;;-1.60;1.00;;;;;;5035901;28;20209;-67
2022/12/14 00:27:42;;;;;;;7.90;7.30;;;-1.60;1.00;;;;;;5057075;28;20189;-67
2022/12/14 00:30:08;;;;;;;7.60;7.20;;;-1.60;1.00;;;;;;5073685;28;20583;-67
2022/12/14 00:32:34;;;;;;;8.60;7.90;;;-1.60;1.00;;;;;;5070576;28;20178;-67
2022/12/14 00:35:00;;;;;;;7.27;6.97;;;-1.50;1.00;;;;;;5053937;28;20222;-67
2022/12/14 00:37:26;;;;;;;8.83;8.20;;;-1.50;1.00;;;;;;5054988;28;20182;-67
2022/12/14 00:39:51;;;;;;;8.17;7.67;;;-1.50;1.00;;;;;;5073597;28;20185;-67
2022/12/14 00:42:17;;;;;;;9.83;9.10;;;-1.50;1.00;;;;;;5054714;28;20198;-67
2022/12/14 00:44:42;;;;;;;8.43;7.73;;;-1.50;1.00;;;;;;5053721;28;20191;-67
2022/12/14 00:47:08;;;;;;;8.10;7.47;;;-1.40;1.00;;;;;;5053589;28;20214;-67
2022/12/14 00:49:34;;;;;;;8.90;8.20;;;-1.40;1.00;;;;;;5072215;28;20178;-67
2022/12/14 00:51:59;;;;;;;9.07;8.03;;;-1.40;1.00;;;;;;5073452;28;20576;-67
2022/12/14 00:54:25;;;;;;;9.30;8.70;;;-1.40;1.00;;;;;;5037309;28;20213;-67
2022/12/14 00:56:50;;;;;;;8.37;7.87;;;-1.40;1.00;;;;;;5053521;28;20543;-67
2022/12/14 00:59:17;;;;;;;8.80;8.20;;;-1.40;1.00;;;;;;5069164;28;20190;-67
2022/12/14 01:01:43;;;;;;;8.33;7.73;;;-1.30;1.00;;;;;;5073278;28;20280;-67
2022/12/14 01:04:18;;;;;;;8.30;7.90;;;-1.30;1.00;;;;;;5057215;28;20218;-67
2022/12/14 01:06:49;;;;;;;7.73;7.33;;;-1.30;1.00;;;;;;5053601;28;20215;-67
2022/12/14 01:09:15;;;;;;;8.17;7.60;;;-1.30;1.00;;;;;;5050733;28;20277;-67
2022/12/14 01:11:42;;;;;;;7.77;7.37;;;-1.30;1.00;;;;;;5073214;28;20174;-67
2022/12/14 01:14:12;;;;;;;7.73;7.43;;;-1.30;1.00;;;;;;5057394;28;20206;-67
2022/12/14 01:16:38;;;;;;;8.83;8.20;;;-1.30;1.00;;;;;;5035319;28;20208;-67
2022/12/14 01:19:04;;;;;;;7.90;7.50;;;-1.30;1.00;;;;;;5066751;28;20174;-67
2022/12/14 01:21:30;;;;;;;8.17;7.53;;;-1.30;1.00;;;;;;5072700;28;20220;-67
2022/12/14 01:23:58;;;;;;;7.13;6.83;;;-1.60;1.00;;;;;;5058467;28;20174;-67
2022/12/14 01:26:25;;;;;;;7.70;7.30;;;-1.20;1.00;;;;;;5052846;28;20174;-67
2022/12/14 01:28:55;;;;;;;8.03;7.63;;;-1.20;1.00;;;;;;5064566;28;20182;-67
2022/12/14 01:31:29;;;;;;;7.77;7.37;;;-1.20;1.00;;;;;;5072507;28;20670;-67
2022/12/14 01:33:55;;;;;;;9.23;7.47;;;-1.20;1.00;;;;;;5059895;28;20196;-67
2022/12/14 01:36:28;;;;;;;7.90;7.40;;;-1.30;1.00;;;;;;5052798;28;20179;-67
2022/12/14 01:38:55;;;;;;;9.07;8.57;;;-1.20;1.00;;;;;;5072788;28;20182;-67
2022/12/14 01:41:29;;;;;;;7.17;6.70;;;-1.30;1.00;;;;;;5053916;28;20240;-67
2022/12/14 01:43:57;;;;;;;7.53;7.23;;;-1.00;1.00;;;;;;5034672;28;20210;-67
2022/12/14 01:46:28;;;;;;;7.87;7.47;;;-1.30;1.00;;;;;;5052387;28;20167;-67
2022/12/14 01:48:59;;;;;;;8.03;7.63;;;-1.30;1.00;;;;;;5052496;28;20175;-67
2022/12/14 01:51:28;;;;;;;8.27;7.67;;;-1.30;1.00;;;;;;5052181;28;20241;-67
2022/12/14 01:53:55;;;;;;;8.17;7.77;;;-1.30;1.00;;;;;;5072266;28;20206;-67
2022/12/14 01:56:20;;;;;;;8.03;7.63;;;-1.40;1.00;;;;;;5072161;28;20185;-67
2022/12/14 01:58:46;;;;;;;8.37;7.87;;;-1.40;1.00;;;;;;5052901;28;20277;-67
2022/12/14 02:01:12;;;;;;;7.80;7.40;;;-1.50;1.00;;;;;;5051884;28;20661;-67
2022/12/14 02:03:45;;;;;;;7.97;7.50;;;-1.50;1.00;;;;;;5052467;28;20186;-67
2022/12/14 02:06:17;;;;;;;8.57;8.00;;;-1.60;1.00;;;;;;5054010;28;20177;-67
2022/12/14 02:08:47;;;;;;;7.77;7.37;;;-1.70;1.00;;;;;;5053414;28;20180;-67
2022/12/14 02:11:15;;;;;;;7.53;7.23;;;-1.80;1.00;;;;;;5051733;28;20270;-67
2022/12/14 02:13:41;;;;;;;8.37;7.73;;;-2.00;1.00;;;;;;5064264;28;20618;-67
2022/12/14 02:16:07;;;;;;;8.07;7.57;;;-2.00;1.00;;;;;;5051738;28;20249;-67
2022/12/14 02:18:33;;;;;;;9.13;7.93;;;-2.10;1.00;;;;;;5051992;28;20538;-67
2022/12/14 02:21:07;;;;;;;7.07;6.77;;;-2.10;1.00;;;;;;5033668;28;20174;-67
2022/12/14 02:24:10;;;;;;;7.70;7.30;;;-2.20;1.00;;;;;;5067522;28;20185;-67
2022/12/14 02:27:08;;;;;;;7.90;7.40;;;-2.10;1.00;;;;;;5077059;22;20226;-67
2022/12/14 02:29:52;;;;;;;7.83;7.13;;;-2.10;1.00;;;;;;5051735;28;20567;-65
2022/12/14 02:32:41;;;;;;;7.40;7.00;;;-2.10;1.00;;;;;;5051495;28;20175;-65
2022/12/14 02:35:39;;;;;;;7.47;7.13;;;-2.10;1.00;;;;;;5057772;28;20204;-65
2022/12/14 02:38:19;;;;;;;7.20;6.90;;;-2.00;1.00;;;;;;5024568;28;20627;-65
2022/12/14 02:40:59;;;;;;;8.10;7.20;;;-2.00;1.00;;;;;;5033186;28;20178;-65
2022/12/14 02:43:38;;;;;;;7.57;7.10;;;-1.90;1.00;;;;;;5067155;28;20267;-65
2022/12/14 02:46:12;;;;;;;7.87;7.47;;;-1.80;1.00;;;;;;5071563;28;20651;-65
2022/12/14 02:49:05;;;;;;;8.10;7.60;;;-1.80;1.00;;;;;;5054236;28;20170;-65
2022/12/14 02:51:56;;;;;;;8.03;7.50;;;-1.80;1.00;;;;;;5051468;28;20585;-65
2022/12/14 02:54:40;;;;;;;8.13;7.53;;;-1.80;1.00;;;;;;5069779;28;20507;-65
2022/12/14 02:57:18;;;;;;;8.43;7.77;;;-1.80;1.00;;;;;;5057076;28;20174;-65
2022/12/14 02:59:45;;;;;;;9.50;9.00;;;-1.80;1.00;;;;;;5051260;28;20186;-65
2022/12/14 03:02:12;;;;;;;8.70;8.00;;;-1.80;1.00;;;;;;5065482;28;20202;-65
2022/12/14 03:04:46;;;;;;;9.07;8.50;;;-1.70;1.00;;;;;;5071025;28;20247;-65
2022/12/14 03:07:34;;;;;;;7.83;7.43;;;-1.80;1.00;;;;;;5039300;28;20517;-65
2022/12/14 03:10:24;;;;;;;8.47;8.07;;;-1.80;1.00;;;;;;5051246;28;20175;-65
2022/12/14 03:12:56;;;;;;;8.57;7.97;;;-1.70;1.00;;;;;;5031097;28;20197;-65
2022/12/14 03:15:23;;;;;;;8.70;8.23;;;-1.70;1.00;;;;;;5051315;28;20273;-65
2022/12/14 03:17:53;;;;;;;7.73;7.40;;;-1.70;1.00;;;;;;5069835;28;20170;-65
2022/12/14 03:20:24;;;;;;;7.93;7.53;;;-1.70;1.00;;;;;;5071039;28;20174;-65
2022/12/14 03:22:58;;;;;;;8.33;7.73;;;-1.70;1.00;;;;;;5051028;28;20289;-65
2022/12/14 03:25:46;;;;;;;8.17;7.77;;;-1.70;1.00;;;;;;5051088;28;20287;-65
2022/12/14 03:28:42;;;;;;;7.70;7.30;;;-1.60;1.00;;;;;;5050983;28;20174;-65
2022/12/14 03:31:15;;;;;;;8.23;7.83;;;-1.70;1.00;;;;;;5055547;28;20182;-65
2022/12/14 03:33:43;;;;;;;8.27;7.80;;;-1.70;1.00;;;;;;5053163;28;20174;-65
2022/12/14 03:36:27;;;;;;;7.40;7.10;;;-1.70;1.00;;;;;;5050847;28;20249;-69
2022/12/14 03:38:57;;;;;;;7.77;7.40;;;-1.70;1.00;;;;;;5055164;28;20171;-70
2022/12/14 03:41:58;;;;;;;8.60;8.00;;;-1.70;1.00;;;;;;5062417;28;20698;-69
2022/12/14 03:44:44;;;;;;;8.97;8.27;;;-1.70;1.00;;;;;;5061918;28;20186;-70
2022/12/14 03:47:42;;;;;;;9.50;8.60;;;-1.70;1.00;;;;;;5062388;28;20174;-70
2022/12/14 03:50:44;;;;;;;9.40;8.63;;;-1.70;1.00;;;;;;5038135;28;20201;-69
2022/12/14 03:53:19;;;;;;;8.90;8.10;;;-1.60;1.00;;;;;;5038002;28;20258;-70
2022/12/14 03:56:03;;;;;;;8.37;7.83;;;-1.60;1.00;;;;;;5040624;28;20221;-70
2022/12/14 03:58:52;;;;;;;7.67;7.23;;;-1.60;1.00;;;;;;5078824;28;20591;-70
2022/12/14 04:01:36;;;;;;;12.40;7.73;;;-1.60;1.00;;;;;;5072334;28;20224;-69
2022/12/14 04:04:05;;;;;;;7.73;7.33;;;-1.60;1.00;;;;;;5058706;28;20212;-71
2022/12/14 04:07:03;;;;;;;9.17;8.50;;;-1.60;1.00;;;;;;5063508;28;20292;-71
2022/12/14 04:09:41;;;;;;;7.57;7.27;;;-1.50;1.00;;;;;;5077787;28;20170;-69
2022/12/14 04:18:55;;;;;;;8.43;8.03;;;-1.50;1.00;;;;;;5058522;28;20197;-71
2022/12/14 04:20:51;;;;;;;8.73;8.23;;;-1.40;1.00;;;;;;5078388;28;20192;-68
2022/12/14 04:26:13;;;;;;;8.47;7.77;;;-1.40;1.00;;;;;;5045531;28;20224;-69
2022/12/14 04:31:33;;;;;;;7.90;7.57;;;-1.40;1.00;;;;;;5070316;28;20595;-70
2022/12/14 04:34:03;;;;;;;7.87;7.37;;;-1.40;1.00;;;;;;5058810;28;20537;-70
2022/12/14 04:36:37;;;;;;;10.60;7.57;;;-1.40;1.00;;;;;;5064400;28;20208;-71
2022/12/14 04:39:06;;;;;;;8.87;8.37;;;-1.40;1.00;;;;;;5078262;28;20627;-68
2022/12/14 04:41:36;;;;;;;8.17;7.77;;;-1.40;1.00;;;;;;5071302;28;20211;-69
2022/12/14 04:44:29;;;;;;;8.57;7.83;;;-1.40;1.00;;;;;;5057979;28;20160;-68
2022/12/14 04:46:57;;;;;;;7.63;7.33;;;-1.40;1.00;;;;;;5067632;28;20186;-70
2022/12/14 04:49:34;;;;;;;8.17;7.73;;;-1.30;1.00;;;;;;5060424;28;20231;-70
2022/12/14 04:52:24;;;;;;;8.43;7.30;;;-1.30;1.00;;;;;;5075834;28;20177;-65
2022/12/14 04:55:04;;;;;;;7.93;7.53;;;-1.30;1.00;;;;;;5073872;28;20265;-65
2022/12/14 04:58:05;;;;;;;7.10;6.80;;;-1.30;1.00;;;;;;5059578;28;20178;-65
2022/12/14 05:00:35;;;;;;;7.63;7.23;;;-1.30;1.00;;;;;;5053465;28;20243;-65
2022/12/14 05:03:03;;;;;;;7.53;7.13;;;-1.30;1.00;;;;;;5071883;28;20678;-66
2022/12/14 05:05:45;;;;;;;8.23;7.83;;;-1.20;1.00;;;;;;5054992;28;20331;-66
2022/12/14 05:08:29;;;;;;;8.97;8.37;;;-1.20;1.00;;;;;;5053739;28;20182;-65
2022/12/14 05:11:16;;;;;;;8.00;7.50;;;-1.20;1.00;;;;;;5054202;28;20174;-65
2022/12/14 05:13:46;;;;;;;7.33;6.93;;;-1.20;1.00;;;;;;5073567;28;20647;-66
2022/12/14 05:16:17;;;;;;;7.03;6.73;;;-1.20;1.00;;;;;;5070195;28;20317;-65
2022/12/14 05:18:43;;;;;;;7.93;7.50;;;-1.20;1.00;;;;;;5053432;28;20224;-66
2022/12/14 05:21:45;;;;;;;8.13;7.53;;;-1.20;1.00;;;;;;5055677;28;20260;-65
2022/12/14 05:23:57;;;;;;;7.00;6.70;;;-1.10;1.00;;;;;;5072703;28;20174;-65
2022/12/14 05:26:23;;;;;;;8.13;7.23;;;-1.20;1.00;;;;;;5068471;28;20202;-65
2022/12/14 05:28:48;;;;;;;9.20;8.47;;;-1.10;1.00;;;;;;5053450;28;20177;-66
2022/12/14 05:31:14;;;;;;;6.83;6.53;;;-1.10;1.00;;;;;;5055834;28;20178;-66
2022/12/14 05:33:40;;;;;;;7.97;7.47;;;-1.10;1.00;;;;;;5073071;28;20178;-65
2022/12/14 05:36:06;;;;;;;8.00;7.37;;;-1.10;1.00;;;;;;5053187;28;20201;-65
2022/12/14 05:38:31;;;;;;;8.20;7.60;;;-1.10;1.00;;;;;;5053004;28;20167;-66
2022/12/14 05:40:57;;;;;;;13.40;7.37;;;-1.10;1.00;;;;;;5053416;28;20174;-65
2022/12/14 05:43:22;;;;;;;8.13;7.37;;;-1.20;1.00;;;;;;5073002;28;20617;-66
2022/12/14 05:45:48;;;;;;;7.43;6.90;;;-1.20;1.00;;;;;;5072716;28;20178;-65
2022/12/14 05:48:14;;;;;;;8.50;7.93;;;-1.20;1.00;;;;;;5053744;28;20183;-66
2022/12/14 05:50:40;;;;;;;7.40;6.80;;;-1.20;1.00;;;;;;5052542;28;20171;-65
2022/12/14 05:53:07;;;;;;;8.47;7.80;;;-1.20;1.00;;;;;;5070483;28;20185;-66
2022/12/14 05:55:32;;;;;;;8.03;7.53;;;-1.10;1.00;;;;;;5062976;28;20680;-65
2022/12/14 05:57:58;;;;;;;9.83;9.03;;;-1.10;1.00;;;;;;5052546;28;20170;-66
2022/12/14 06:00:23;;;;;;;6.90;6.60;;;-1.10;1.00;;;;;;5059149;28;20678;-65
2022/12/14 06:02:49;;;;;;;8.27;7.40;;;-1.10;1.00;;;;;;5072405;28;20271;-65
2022/12/14 06:05:14;;;;;;;8.67;7.43;;;-1.10;1.00;;;;;;5066573;28;20191;-65
2022/12/14 06:07:40;;;;;;;7.50;7.07;;;-1.10;1.00;;;;;;5052421;28;20163;-65
2022/12/14 06:10:06;;;;;;;8.17;7.70;;;-1.10;1.00;;;;;;5056424;28;20182;-65
2022/12/14 06:12:31;;;;;;;8.17;7.77;;;-1.10;1.00;;;;;;5072212;28;20216;-65
2022/12/14 06:14:57;;;;;;;7.60;7.20;;;-1.20;1.00;;;;;;5069877;28;20588;-65
2022/12/14 06:17:22;;;;;;;6.90;6.60;;;-1.20;1.00;;;;;;5047471;28;20183;-65
2022/12/14 06:19:48;;;;;;;8.23;7.73;;;-1.20;1.00;;;;;;5031946;28;20171;-65
2022/12/14 06:22:14;;;;;;;7.27;6.97;;;-1.20;1.00;;;;;;5032056;28;20278;-65
2022/12/14 06:24:39;;;;;;;8.37;7.87;;;-1.20;1.00;;;;;;5014264;28;20260;-65
2022/12/14 06:27:05;;;;;;;8.17;7.43;;;-1.20;1.00;;;;;;5069796;28;20185;-65
2022/12/14 06:29:30;;;;;;;8.03;7.60;;;-1.20;1.00;;;;;;5071697;28;20206;-65
2022/12/14 06:31:56;;;;;;;7.40;7.10;;;-1.20;1.00;;;;;;5054906;28;20213;-65
2022/12/14 06:34:21;;;;;;;7.73;7.33;;;-1.20;1.00;;;;;;5051688;28;20232;-65
2022/12/14 06:36:47;;;;;;;7.73;7.33;;;-1.30;1.00;;;;;;5067640;28;20206;-65
2022/12/14 06:39:15;;;;;;;8.47;7.90;;;-1.20;1.00;;;;;;5071598;28;20205;-65
2022/12/14 06:41:42;;;;;;;7.50;7.00;;;-1.20;1.00;;;;;;5055685;28;20212;-65
2022/12/14 06:44:11;;;;;;;9.23;7.57;;;-1.20;1.00;;;;;;5051842;28;20201;-65
2022/12/14 06:46:37;;;;;;;7.27;6.87;;;-1.20;1.00;;;;;;5065985;28;20267;-65
2022/12/14 06:49:04;;;;;;;7.70;7.10;;;-1.20;1.00;;;;;;5071849;28;20181;-65
2022/12/14 06:51:31;;;;;;;7.97;7.50;;;-1.20;1.00;;;;;;5058395;28;20269;-65
2022/12/14 06:53:57;;;;;;;7.17;6.80;;;-1.20;1.00;;;;;;5051658;28;20295;-65
2022/12/14 06:56:24;;;;;;;8.20;7.70;;;-1.10;1.00;;;;;;5063228;28;20312;-65
2022/12/14 06:58:51;;;;;;;9.10;8.43;;;-1.10;1.00;;;;;;5071538;28;20197;-65
2022/12/14 07:01:19;;;;;;;7.77;7.37;;;-1.10;1.00;;;;;;5059968;28;20183;-65
2022/12/14 07:03:52;;;;;;;8.33;7.50;;;-1.10;1.00;;;;;;5051505;28;20545;-65
2022/12/14 07:06:17;;;;;;;7.50;7.10;;;-1.10;1.00;;;;;;5062227;28;20201;-65
2022/12/14 07:08:43;;;;;;;7.33;6.90;;;;;;;;;;5071135;28;20181;-65
2022/12/14 07:11:11;;;;;;;11.20;8.27;;;-1.20;1.00;;;;;;5049145;28;20610;-65
2022/12/14 07:13:37;;;;;;;7.43;6.97;;;-1.10;1.00;;;;;;5063682;28;20183;-65
2022/12/14 07:16:05;;;;;;;6.90;6.60;;;-1.10;1.00;;;;;;5068771;28;20209;-65
2022/12/14 07:18:32;;;;;;;7.93;7.43;;;-1.10;1.00;;;;;;5053413;28;20190;-65
2022/12/14 07:21:01;;;;;;;7.57;7.23;;;-1.10;1.00;;;;;;5063333;28;20261;-65
2022/12/14 07:23:28;;;;;;;7.63;7.23;;;-1.00;1.00;;;;;;5051467;28;20229;-65
2022/12/14 07:26:09;;;;;;;8.20;7.67;;;-1.00;1.00;;;;;;5058771;28;20734;-65
2022/12/14 07:28:35;;;;;;;7.80;7.30;;;-1.00;1.00;;;;;;5075281;28;20178;-65
2022/12/14 07:31:02;;;;;;;7.70;7.30;;;-1.00;1.00;;;;;;5066753;28;20187;-65
2022/12/14 07:33:28;;;;;;;8.27;7.77;;;-1.00;1.00;;;;;;5055360;28;20221;-65
2022/12/14 07:36:05;;;;;;;10.63;8.83;;;-1.00;1.00;;;;;;5062185;28;20226;-64
2022/12/14 07:38:31;;;;;;;7.23;6.83;;;-1.00;1.00;;;;;;5074995;28;20545;-65
2022/12/14 07:41:14;;;;;;;7.20;6.90;;;-1.00;1.00;;;;;;5065437;28;20193;-65
2022/12/14 07:43:41;;;;;;;7.63;7.23;;;-0.90;1.00;;;;;;5017269;28;20187;-64
2022/12/14 07:46:13;;;;;;;8.27;7.67;;;-0.90;1.00;;;;;;5052950;28;20202;-65
2022/12/14 07:48:41;;;;;;;7.77;7.27;;;-0.90;1.00;;;;;;5075026;28;20252;-65
2022/12/14 07:51:10;;;;;;;7.30;6.90;;;-0.90;1.00;;;;;;5065807;28;20205;-65
2022/12/14 07:53:37;;;;;;;7.73;6.80;;;-0.80;1.00;;;;;;5055037;28;20713;-64
2022/12/14 07:56:06;;;;;;;8.80;8.20;;;-0.80;1.00;;;;;;5062694;28;20679;-65
2022/12/14 07:58:35;;;;;;;8.13;7.50;;;-0.80;1.00;;;;;;5074303;28;20197;-65
2022/12/14 08:01:13;;;;;;;8.50;8.03;;;-0.80;1.00;;;;;;5066639;28;20185;-65
2022/12/14 08:03:40;;;;;;;7.67;7.27;;;-0.80;1.00;;;;;;5054517;28;20236;-65
2022/12/14 08:06:07;;;;;;;8.03;7.43;;;-0.70;1.00;;;;;;5045021;28;20194;-65
2022/12/14 08:08:33;;;;;;;7.73;7.23;;;-0.70;1.00;;;;;;5056441;28;20600;-65
2022/12/14 08:10:59;;;;;;;10.23;9.23;;;-0.60;1.00;;;;;;5067296;28;20254;-65
2022/12/14 08:13:25;;;;;;;8.23;7.63;;;-0.60;1.00;;;;;;5054376;28;20214;-65
2022/12/14 08:15:50;;;;;;;7.03;6.63;;;-0.60;1.00;;;;;;5060372;28;20284;-65
2022/12/14 08:18:16;;;;;;;7.77;6.73;;;-0.50;1.00;;;;;;5067233;28;20186;-65
2022/12/14 08:20:41;;;;;;;6.87;6.57;;;-0.50;1.00;;;;;;5055678;28;20696;-65
2022/12/14 08:23:07;;;;;;;8.33;7.50;;;-0.40;1.00;;;;;;5070917;28;20564;-65
2022/12/14 08:25:33;;;;;;;7.53;7.03;;;-0.40;1.00;;;;;;5036845;28;20206;-65
2022/12/14 08:27:58;;;;;;;7.87;7.27;;;-0.30;1.00;;;;;;5055891;28;20163;-64
2022/12/14 08:30:24;;;;;;;7.57;7.17;;;-0.20;1.00;;;;;;5073806;28;20171;-64
2022/12/14 08:32:49;;;;;;;7.83;7.43;;;-0.20;1.00;;;;;;5073888;28;20208;-65
2022/12/14 08:35:15;;;;;;;7.90;7.43;;;-0.20;1.00;;;;;;5053969;28;20190;-64
2022/12/14 08:37:41;;;;;;;8.30;7.50;;;-0.10;1.00;;;;;;5054062;28;20190;-64
2022/12/14 08:40:07;;;;;;;7.47;6.77;;;-0.10;1.00;;;;;;5071988;28;20265;-64
2022/12/14 08:42:33;;;;;;;6.70;6.40;;;-0.10;1.00;;;;;;5073600;28;20210;-64
2022/12/14 08:44:58;;;;;;;7.80;7.37;;;0.00;1.00;;;;;;5056178;28;20664;-64
2022/12/14 08:47:24;;;;;;;7.40;7.00;;;0.00;1.00;;;;;;5053826;28;20182;-64
2022/12/14 08:49:49;;;;;;;7.83;7.33;;;0.00;1.00;;;;;;5036570;28;20261;-65
2022/12/14 08:52:15;;;;;;;7.33;6.93;;;-0.10;1.00;;;;;;5053587;28;20566;-64
2022/12/14 08:54:40;;;;;;;8.07;7.27;;;-0.10;1.00;;;;;;5068157;28;20182;-64
2022/12/14 08:57:06;;;;;;;9.10;8.40;;;0.00;1.00;;;;;;5073536;28;20696;-64
2022/12/14 08:59:32;;;;;;;8.60;7.97;;;0.00;1.00;;;;;;5071680;28;20521;-66
2022/12/14 09:01:57;;;;;;;8.13;7.47;;;0.00;1.00;;;;;;5055480;28;20243;-64
2022/12/14 09:04:23;;;;;;;7.67;7.10;;;0.00;1.00;;;;;;5053185;28;20185;-64
2022/12/14 09:06:49;;;;;;;8.37;7.63;;;0.10;1.00;;;;;;5055332;28;20186;-64
2022/12/14 09:09:14;;;;;;;7.87;7.23;;;0.10;1.00;;;;;;5061509;28;20519;-64
2022/12/14 09:11:40;;;;;;;7.87;7.30;;;0.10;1.00;;;;;;5065975;28;20189;-64
2022/12/14 09:14:06;;;;;;;8.73;7.23;;;0.20;1.00;;;;;;5073298;28;20174;-64
2022/12/14 09:16:31;;;;;;;8.10;7.40;;;0.30;1.00;;;;;;5073269;28;20217;-64
2022/12/14 09:18:57;;;;;;;8.23;7.13;;;0.30;1.00;;;;;;5073507;28;20171;-64
2022/12/14 09:21:23;;;;;;;8.27;7.67;;;0.40;1.00;;;;;;5072950;28;20514;-64
2022/12/14 09:23:49;;;;;;;9.00;8.30;;;0.60;1.00;;;;;;5071746;28;20170;-64
2022/12/14 09:26:17;;;;;;;8.67;8.03;;;0.60;1.00;;;;;;5072590;28;20569;-64
2022/12/14 09:28:51;;;;;;;8.07;7.30;;;0.60;99.90;;;;;;5073048;28;20676;-64
2022/12/14 09:31:20;;;;;;;8.53;7.77;;;0.60;99.90;;;;;;5072554;28;20162;-64
2022/12/14 09:33:46;;;;;;;9.80;8.70;;;0.60;99.90;;;;;;5072930;28;20198;-64
2022/12/14 09:36:20;;;;;;;7.97;7.47;;;0.70;99.90;;;;;;5072808;28;20214;-64
2022/12/14 09:38:46;;;;;;;8.90;8.07;;;0.70;99.90;;;;;;5072887;28;20173;-64
2022/12/14 09:41:30;;;;;;;8.73;8.20;;;0.80;99.90;;;;;;5072333;28;20228;-64
2022/12/14 09:44:34;;;;;;;7.60;7.30;;;0.80;1.00;;;;;;5072744;28;20178;-64
2022/12/14 09:47:15;;;;;;;8.83;8.23;;;0.80;99.90;;;;;;5054723;28;20526;-64
2022/12/14 09:50:01;;;;;;;8.73;8.03;;;0.80;99.90;;;;;;5072372;28;20252;-64
2022/12/14 09:52:47;;;;;;;8.13;7.63;;;0.70;1.00;;;;;;5054551;28;20185;-64
2022/12/14 09:55:30;;;;;;;8.37;7.80;;;0.70;99.90;;;;;;5072486;28;20190;-64
2022/12/14 09:58:00;;;;;;;8.37;7.80;;;0.70;1.00;;;;;;5072774;28;20201;-64
2022/12/14 10:00:36;;;;;;;7.90;7.30;;;0.70;1.00;;;;;;5072077;28;20181;-64
2022/12/14 10:03:26;;;;;;;8.70;7.97;;;0.70;1.00;;;;;;5074511;28;20201;-65
2022/12/14 10:06:50;;;;;;;7.53;7.10;;;0.70;1.00;;;;;;5069691;28;20194;-64
2022/12/14 10:09:27;;;;;;;10.57;7.57;;;0.80;1.00;;;;;;5023856;28;20756;-65
2022/12/14 10:12:16;;;;;;;9.00;7.63;;;0.80;1.00;;;;;;4994600;28;20176;-64
2022/12/14 10:15:00;;;;;;;8.70;8.17;;;0.80;1.00;;;;;;5036503;28;20600;-64
2022/12/14 10:17:28;;;;;;;7.57;7.17;;;0.90;1.00;;;;;;5072308;28;20176;-65
2022/12/14 10:19:56;;;;;;;8.93;8.40;;;0.80;1.00;;;;;;5071843;28;20169;-64
2022/12/14 10:22:30;;;;;;;8.37;7.67;;;0.80;1.00;;;;;;5071317;28;20209;-64
2022/12/14 10:25:11;;;;;;;9.63;7.50;;;0.70;1.00;;;;;;5071481;28;20233;-64
2022/12/14 10:27:38;;;;;;;8.60;7.87;;;0.60;1.00;;;;;;5072157;28;20165;-64
2022/12/14 10:30:13;;;;;;;7.73;7.23;;;0.60;1.00;;;;;;5053743;28;20547;-64
2022/12/14 10:32:44;;;;;;;8.50;7.73;;;0.60;1.00;;;;;;5054080;28;20205;-64
2022/12/14 10:35:13;;;;;;;8.07;7.47;;;0.70;1.00;;;;;;5071924;28;20190;-65
2022/12/14 10:37:43;;;;;;;8.80;8.10;;;0.70;1.00;;;;;;5071922;28;20232;-64
2022/12/14 10:40:08;;;;;;;8.03;7.50;;;0.80;1.00;;;;;;5071645;28;20224;-64
2022/12/14 10:42:47;;;;;;;8.07;7.40;;;0.80;1.00;;;;;;5071730;28;20198;-64
2022/12/14 10:45:12;;;;;;;11.57;9.13;;;0.80;1.00;;;;;;5071870;28;20186;-64
2022/12/14 10:47:43;;;;;;;10.20;9.20;;;0.90;1.00;;;;;;5071902;28;20164;-64
2022/12/14 10:50:34;;;;;;;7.80;7.40;;;1.00;1.00;;;;;;5071448;28;20228;-64
2022/12/14 10:53:02;;;;;;;10.73;8.93;;;1.00;1.00;;;;;;5071724;28;20220;-64
2022/12/14 10:55:57;;;;;;;8.43;7.97;;;1.10;1.00;;;;;;5071551;28;20669;-64
2022/12/14 10:58:23;;;;;;;9.37;8.70;;;1.20;1.00;;;;;;5069861;28;20275;-64
2022/12/14 11:00:53;;;;;;;8.07;7.33;;;1.20;1.00;;;;;;5071209;28;20663;-64
2022/12/14 11:03:19;;;;;;;8.87;8.07;;;1.30;1.00;;;;;;5053219;28;20225;-64
2022/12/14 11:06:08;;;;;;;9.03;8.33;;;1.30;1.00;;;;;;5071645;28;20214;-64
2022/12/14 11:08:40;;;;;;;9.57;8.93;;;1.30;1.00;;;;;;5071712;28;20166;-64
2022/12/14 11:11:20;;;;;;;8.30;7.80;;;1.30;1.00;;;;;;5071431;28;20233;-65
2022/12/14 11:14:05;;;;;;;9.97;8.93;;;1.30;1.00;;;;;;5071705;28;20197;-64
2022/12/14 11:16:36;;;;;;;9.73;9.00;;;1.40;1.00;;;;;;5071719;28;20197;-64
2022/12/14 11:19:03;;;;;;;9.30;8.70;;;1.40;1.00;;;;;;5072091;28;20220;-64
2022/12/14 11:21:36;;;;;;;10.23;9.03;;;1.40;1.00;;;;;;5071511;28;20171;-64
2022/12/14 11:24:02;;;;;;;8.57;7.97;;;1.40;1.00;;;;;;5071012;28;20169;-64
2022/12/14 11:26:31;;;;;;;8.77;8.20;;;1.50;1.00;;;;;;5071424;28;20690;-64
2022/12/14 11:28:59;;;;;;;8.60;8.10;;;1.50;1.00;;;;;;5072002;28;20232;-65
2022/12/14 11:31:36;;;;;;;9.40;8.67;;;1.50;1.00;;;;;;5071261;28;20174;-64
2022/12/14 11:34:04;;;;;;;9.43;8.53;;;1.50;1.00;;;;;;5071791;28;20162;-64
2022/12/14 11:36:37;;;;;;;9.43;8.53;;;1.50;1.00;;;;;;5053179;28;20205;-64
2022/12/14 11:39:14;;;;;;;10.20;9.07;;;1.50;1.00;;;;;;5053228;28;20166;-64
2022/12/14 11:41:43;;;;;;;9.40;8.67;;;1.50;1.00;;;;;;5071079;28;20201;-64
2022/12/14 11:44:15;;;;;;;9.00;8.33;;;1.50;1.00;;;;;;5071053;28;20700;-64
2022/12/14 11:46:58;;;;;;;8.73;8.10;;;1.50;1.00;;;;;;5052900;28;20280;-64
2022/12/14 11:49:44;;;;;;;8.97;8.10;;;1.40;14.10;;;;;;5071028;28;20201;-64
2022/12/14 11:52:14;;;;;;;10.30;9.30;;;1.50;92.50;;;;;;5053132;28;20210;-64
2022/12/14 11:55:01;;;;;;;9.30;7.90;;;1.60;93.20;;;;;;5070880;28;20170;-64
2022/12/14 11:57:35;;;;;;;7.53;7.07;;;1.70;94.40;;;;;;5071116;28;20224;-64
2022/12/14 12:00:20;;;;;;;8.90;8.30;;;1.70;66.50;;;;;;5070955;28;20256;-64
2022/12/14 12:03:07;;;;;;;9.80;8.77;;;1.70;25.50;;;;;;5070943;28;20212;-65
2022/12/14 12:05:39;;;;;;;9.30;8.50;;;1.80;99.90;;;;;;5052909;28;20198;-64
2022/12/14 12:08:16;;;;;;;11.13;8.50;;;1.90;99.90;;;;;;5070938;28;20592;-64
2022/12/14 12:10:47;;;;;;;8.60;7.97;;;1.80;99.90;;;;;;5070666;28;20261;-65
2022/12/14 12:13:36;;;;;;;9.13;8.37;;;1.80;99.90;;;;;;5053076;28;20637;-65
2022/12/14 12:16:15;;;;;;;9.07;8.57;;;1.70;99.90;;;;;;5074453;28;20652;-64
2022/12/14 12:18:47;;;;;;;9.83;8.97;;;1.60;99.90;;;;;;5074323;28;20178;-64
2022/12/14 12:21:34;;;;;;;9.60;8.77;;;1.50;1.00;;;;;;5056245;28;20185;-65
2022/12/14 12:24:18;;;;;;;9.00;8.27;;;1.40;1.00;;;;;;5073609;28;20178;-64
2022/12/14 12:26:58;;;;;;;9.70;9.00;;;1.40;99.90;;;;;;5074054;28;20202;-64
2022/12/14 12:29:36;;;;;;;11.50;10.40;;;1.50;1.00;;;;;;5073867;28;20257;-64
2022/12/14 12:32:25;;;;;;;9.93;8.80;;;1.60;99.90;;;;;;5056112;28;20181;-64
2022/12/14 12:35:15;;;;;;;11.43;10.27;;;1.70;99.90;;;;;;5074023;28;20190;-64
2022/12/14 12:38:15;;;;;;;8.47;7.97;;;1.80;67.00;;;;;;5074052;28;20506;-64
2022/12/14 12:40:59;;;;;;;10.70;9.83;;;2.00;1.00;;;;;;5073852;28;20190;-64
2022/12/14 12:43:32;;;;;;;8.97;8.07;;;2.20;99.90;;;;;;5073852;28;20233;-64
2022/12/14 12:46:11;;;;;;;9.67;8.93;;;2.80;99.90;;;;;;5074054;28;20277;-64
2022/12/14 12:48:45;;;;;;;12.27;9.27;;;3.40;99.90;;;;;;5073920;28;20223;-64
2022/12/14 12:51:41;;;;;;;9.07;8.17;;;3.80;1.00;;;;;;5073507;28;20161;-64
2022/12/14 12:54:13;;;;;;;9.00;8.30;;;4.00;1.00;;;;;;5055810;28;20650;-64
2022/12/14 12:56:48;;;;;;;9.30;8.33;;;4.10;1.00;;;;;;5073569;28;20271;-63
2022/12/14 12:59:29;;;;;;;8.23;7.70;;;4.10;1.00;;;;;;5055355;28;20173;-64
2022/12/14 13:02:21;;;;;;;9.07;8.37;;;4.10;1.00;;;;;;5078578;28;20201;-64
2022/12/14 13:04:50;;;;;;;9.67;8.80;;;3.90;1.00;;;;;;5086881;28;20190;-64
2022/12/14 13:07:40;;;;;;;10.20;9.37;;;3.70;1.00;;;;;;5084561;28;20167;-64
2022/12/14 13:10:26;;;;;;;11.33;10.43;;;3.50;1.00;;;;;;5074570;28;20162;-64
2022/12/14 13:12:59;;;;;;;11.80;10.80;;;3.30;1.00;;;;;;5074289;28;20170;-64
2022/12/14 13:15:40;;;;;;;13.07;10.03;;;3.30;1.00;;;;;;5055953;28;20252;-64
2022/12/14 13:18:28;;;;;;;11.93;10.90;;;3.40;1.00;;;;;;5073956;28;20177;-65
2022/12/14 13:20:55;;;;;;;11.73;9.90;;;3.40;1.00;;;;;;5073386;28;20174;-63
2022/12/14 13:23:27;;;;;;;10.70;9.30;;;3.40;1.00;;;;;;5072556;28;20194;-64
2022/12/14 13:26:15;;;;;;;10.03;9.33;;;3.40;1.00;;;;;;5073181;28;20584;-64
2022/12/14 13:28:59;;;;;;;10.93;10.10;;;3.40;1.00;;;;;;5073072;28;20249;-64
2022/12/14 13:31:46;;;;;;;11.33;10.47;;;3.30;1.00;;;;;;5072883;28;20519;-64
2022/12/14 13:34:21;;;;;;;10.10;9.17;;;3.20;1.00;;;;;;5073391;28;20263;-64
2022/12/14 13:37:20;;;;;;;10.27;9.27;;;3.10;1.00;;;;;;5055156;28;20186;-64
2022/12/14 13:39:52;;;;;;;9.67;8.80;;;3.00;1.00;;;;;;5073006;28;20174;-64